createdAt,value
2022-12-11T00:00:20.982Z,72.47
2022-12-11T00:10:25.605Z,79.07
2022-12-11T00:20:28.623Z,79.40
2022-12-11T00:30:33.003Z,79.87
2022-12-11T00:40:36.466Z,80.93
2022-12-11T00:50:41.845Z,86.93
2022-12-11T01:00:44.819Z,84.90
2022-12-11T01:10:49.202Z,88.23
2022-12-11T01:20:52.567Z,81.60
2022-12-11T01:30:56.753Z,79.53
2022-12-11T01:41:00.309Z,76.00
2022-12-11T01:51:06.893Z,83.13
2022-12-11T02:01:15.171Z,79.03
2022-12-11T02:11:25.866Z,81.40
2022-12-11T02:21:35.610Z,80.77
2022-12-11T02:31:43.997Z,77.47
2022-12-11T02:41:51.426Z,76.63
2022-12-11T02:51:57.747Z,77.07
2022-12-11T03:02:01.229Z,65.87
2022-12-11T03:12:06.075Z,69.70
2022-12-11T03:22:13.970Z,67.43
2022-12-11T03:32:23.292Z,67.40
2022-12-11T03:42:28.142Z,64.20
2022-12-11T03:52:33.581Z,69.03
2022-12-11T04:02:36.739Z,70.20
2022-12-11T04:12:41.143Z,70.07
2022-12-11T04:23:01.692Z,63.87
2022-12-11T04:33:06.025Z,58.63
2022-12-11T04:43:09.013Z,63.77
2022-12-11T04:53:13.433Z,59.10
2022-12-11T05:03:16.544Z,61.97
2022-12-11T05:13:20.983Z,60.73
2022-12-11T05:23:24.107Z,62.87
2022-12-11T05:33:28.902Z,61.47
2022-12-11T05:43:33.901Z,81.40
2022-12-11T05:53:39.276Z,93.13
2022-12-11T06:03:42.734Z,93.13
2022-12-11T06:13:47.001Z,101.73
2022-12-11T06:23:51.717Z,102.50
2022-12-11T06:33:56.369Z,121.13
2022-12-11T06:43:59.284Z,121.83
2022-12-11T06:54:03.641Z,119.77
2022-12-11T07:04:06.780Z,105.90
2022-12-11T07:14:13.052Z,99.53
2022-12-11T07:24:16.218Z,97.53
2022-12-11T07:34:20.796Z,90.50
2022-12-11T07:44:23.665Z,98.77
2022-12-11T07:54:28.000Z,112.57
2022-12-11T08:04:30.879Z,106.80
2022-12-11T08:14:35.402Z,105.03
2022-12-11T08:24:38.338Z,99.73
2022-12-11T08:34:42.569Z,96.73
2022-12-11T08:44:46.087Z,98.07
2022-12-11T08:54:50.409Z,98.90
2022-12-11T09:04:54.984Z,86.00
2022-12-11T09:14:59.308Z,88.20
2022-12-11T09:25:02.395Z,75.33
2022-12-11T09:35:07.945Z,73.47
2022-12-11T09:45:15.169Z,82.10
2022-12-11T09:55:24.280Z,84.43
2022-12-11T10:05:34.884Z,73.17
2022-12-11T10:15:54.792Z,69.07
2022-12-11T10:26:04.073Z,64.13
2022-12-11T10:36:09.945Z,70.03
2022-12-11T10:46:18.627Z,60.50
2022-12-11T10:56:35.162Z,55.97
2022-12-11T11:06:39.299Z,42.93
2022-12-11T11:16:45.826Z,40.30
2022-12-11T11:27:12.145Z,39.70
2022-12-11T11:37:27.051Z,40.60
2022-12-11T11:47:35.698Z,34.00
2022-12-11T11:57:44.812Z,39.93
2022-12-11T12:07:56.082Z,39.23
2022-12-11T12:18:08.937Z,36.97
2022-12-11T12:28:23.842Z,35.83
2022-12-11T12:38:35.582Z,39.77
2022-12-11T12:48:40.026Z,38.23
2022-12-11T12:58:46.455Z,37.43
2022-12-11T13:08:52.718Z,46.57
2022-12-11T13:18:57.840Z,29.57
2022-12-11T13:29:00.981Z,34.63
2022-12-11T13:39:11.152Z,39.83
2022-12-11T13:49:22.948Z,42.25
2022-12-11T13:59:30.044Z,40.73
2022-12-11T14:09:33.149Z,34.43
2022-12-11T14:19:38.221Z,38.23
2022-12-11T14:29:41.107Z,35.83
2022-12-11T14:39:59.353Z,32.80
2022-12-11T14:50:07.525Z,32.47
2022-12-11T15:00:24.404Z,34.73
2022-12-11T15:10:41.147Z,36.67
2022-12-11T15:20:45.535Z,35.70
2022-12-11T15:30:57.762Z,32.00
2022-12-11T15:41:03.524Z,37.13
2022-12-11T15:51:07.390Z,38.03
2022-12-11T16:01:12.324Z,44.10
2022-12-11T16:11:15.469Z,42.30
2022-12-11T16:21:21.769Z,44.50
2022-12-11T16:31:25.159Z,41.23
2022-12-11T16:41:29.603Z,43.97
2022-12-11T16:51:32.592Z,40.73
2022-12-11T17:01:36.991Z,41.97
2022-12-11T17:11:39.947Z,37.40
2022-12-11T17:21:51.153Z,36.93
2022-12-11T17:31:54.719Z,37.37
2022-12-11T17:42:01.940Z,36.97
2022-12-11T17:52:05.286Z,38.47
2022-12-11T18:02:10.716Z,38.07
2022-12-11T18:12:13.917Z,34.80
2022-12-11T18:22:18.324Z,44.90
2022-12-11T18:32:21.311Z,42.13
2022-12-11T18:42:33.837Z,34.80
2022-12-11T18:52:37.134Z,37.50
2022-12-11T19:14:02.333Z,36.83
2022-12-11T19:24:08.870Z,36.20
2022-12-11T19:34:12.010Z,41.30
2022-12-11T19:44:16.808Z,40.03
2022-12-11T19:54:20.037Z,42.40
2022-12-11T20:04:24.395Z,33.97
2022-12-11T20:14:29.141Z,33.47
2022-12-11T20:24:34.438Z,40.13
2022-12-11T20:34:37.275Z,44.70
2022-12-11T20:44:47.283Z,40.50
2022-12-11T20:54:52.168Z,41.43
2022-12-11T21:04:56.782Z,42.40
2022-12-11T21:15:00.008Z,37.40
2022-12-11T21:25:05.290Z,38.67
2022-12-11T21:35:09.870Z,38.57
2022-12-11T21:45:58.750Z,32.73
2022-12-11T21:55:41.171Z,31.23
2022-12-11T22:05:48.965Z,23.43
2022-12-11T22:15:52.490Z,28.23
2022-12-11T22:25:57.079Z,26.60
2022-12-11T22:36:01.157Z,24.23
2022-12-11T22:46:05.495Z,25.13
2022-12-11T22:56:10.334Z,20.40
2022-12-11T23:06:16.520Z,21.97
2022-12-11T23:16:19.590Z,23.67
2022-12-11T23:26:24.556Z,25.73
2022-12-11T23:36:29.005Z,24.30
2022-12-11T23:46:34.631Z,23.60
2022-12-11T23:56:38.105Z,19.10
